sensor_id;sensor_type;location;lat;lon;timestamp;temperature;humidity
6520;DHT22;3293;51.690;5.982;2022-12-15T00:00:59;-6.90;99.90
6520;DHT22;3293;51.690;5.982;2022-12-15T00:06:18;-7.00;99.90
6520;DHT22;3293;51.690;5.982;2022-12-15T00:11:36;-7.00;99.90
6520;DHT22;3293;51.690;5.982;2022-12-15T00:16:55;-7.00;99.90
6520;DHT22;3293;51.690;5.982;2022-12-15T00:22:13;-7.00;99.90
6520;DHT22;3293;51.690;5.982;2022-12-15T00:27:31;-6.90;99.90
6520;DHT22;3293;51.690;5.982;2022-12-15T00:32:50;-6.90;99.90
6520;DHT22;3293;51.690;5.982;2022-12-15T00:38:11;-6.80;99.90
6520;DHT22;3293;51.690;5.982;2022-12-15T00:43:31;-6.80;99.90
6520;DHT22;3293;51.690;5.982;2022-12-15T00:48:31;-6.80;99.90
6520;DHT22;3293;51.690;5.982;2022-12-15T00:53:31;-6.80;99.90
6520;DHT22;3293;51.690;5.982;2022-12-15T00:58:50;-6.70;99.90
6520;DHT22;3293;51.690;5.982;2022-12-15T01:04:08;-6.70;99.90
6520;DHT22;3293;51.690;5.982;2022-12-15T01:09:27;-6.70;99.90
6520;DHT22;3293;51.690;5.982;2022-12-15T01:14:45;-6.70;99.90
6520;DHT22;3293;51.690;5.982;2022-12-15T01:20:04;-6.80;99.90
6520;DHT22;3293;51.690;5.982;2022-12-15T01:25:17;-6.90;99.90
6520;DHT22;3293;51.690;5.982;2022-12-15T01:30:20;-6.90;99.90
6520;DHT22;3293;51.690;5.982;2022-12-15T01:35:21;-6.90;99.90
6520;DHT22;3293;51.690;5.982;2022-12-15T01:40:21;-6.90;99.90
6520;DHT22;3293;51.690;5.982;2022-12-15T01:45:53;-6.80;99.90
6520;DHT22;3293;51.690;5.982;2022-12-15T01:51:13;-6.80;99.90
6520;DHT22;3293;51.690;5.982;2022-12-15T01:56:14;-6.90;99.90
6520;DHT22;3293;51.690;5.982;2022-12-15T02:01:14;-6.90;99.90
6520;DHT22;3293;51.690;5.982;2022-12-15T02:06:14;-7.00;99.90
6520;DHT22;3293;51.690;5.982;2022-12-15T02:27:27;-7.00;99.90
6520;DHT22;3293;51.690;5.982;2022-12-15T02:32:39;-7.00;99.90
6520;DHT22;3293;51.690;5.982;2022-12-15T02:37:43;-7.10;99.90
6520;DHT22;3293;51.690;5.982;2022-12-15T02:42:50;-7.10;99.90
6520;DHT22;3293;51.690;5.982;2022-12-15T02:53:40;-7.20;99.90
6520;DHT22;3293;51.690;5.982;2022-12-15T03:04:01;-7.20;99.90
6520;DHT22;3293;51.690;5.982;2022-12-15T03:09:03;-7.20;99.90
6520;DHT22;3293;51.690;5.982;2022-12-15T03:14:03;-7.20;99.90
6520;DHT22;3293;51.690;5.982;2022-12-15T03:19:03;-7.30;99.90
6520;DHT22;3293;51.690;5.982;2022-12-15T03:24:03;-7.30;99.90
6520;DHT22;3293;51.690;5.982;2022-12-15T03:29:03;-7.30;99.90
6520;DHT22;3293;51.690;5.982;2022-12-15T03:34:03;-7.30;99.90
6520;DHT22;3293;51.690;5.982;2022-12-15T03:39:03;-7.30;99.90
6520;DHT22;3293;51.690;5.982;2022-12-15T03:44:04;-7.30;99.90
6520;DHT22;3293;51.690;5.982;2022-12-15T03:49:04;-7.40;99.90
6520;DHT22;3293;51.690;5.982;2022-12-15T03:54:04;-7.50;99.90
6520;DHT22;3293;51.690;5.982;2022-12-15T03:59:04;-7.50;99.90
6520;DHT22;3293;51.690;5.982;2022-12-15T04:04:04;-7.50;99.90
6520;DHT22;3293;51.690;5.982;2022-12-15T04:09:04;-7.50;99.90
6520;DHT22;3293;51.690;5.982;2022-12-15T04:14:04;-7.40;99.90
6520;DHT22;3293;51.690;5.982;2022-12-15T04:19:04;-7.40;99.90
6520;DHT22;3293;51.690;5.982;2022-12-15T04:24:22;-7.50;99.90
6520;DHT22;3293;51.690;5.982;2022-12-15T04:29:41;-7.50;99.90
6520;DHT22;3293;51.690;5.982;2022-12-15T04:34:59;-7.50;99.90
6520;DHT22;3293;51.690;5.982;2022-12-15T04:40:18;-7.60;99.90
6520;DHT22;3293;51.690;5.982;2022-12-15T04:45:36;-7.60;99.90
6520;DHT22;3293;51.690;5.982;2022-12-15T04:50:55;-7.60;99.90
6520;DHT22;3293;51.690;5.982;2022-12-15T04:56:14;-7.60;99.90
6520;DHT22;3293;51.690;5.982;2022-12-15T05:01:33;-7.60;99.90
6520;DHT22;3293;51.690;5.982;2022-12-15T05:06:52;-7.60;99.90
6520;DHT22;3293;51.690;5.982;2022-12-15T05:12:10;-7.70;99.90
6520;DHT22;3293;51.690;5.982;2022-12-15T05:17:31;-7.70;99.90
6520;DHT22;3293;51.690;5.982;2022-12-15T05:22:56;-7.70;99.90
6520;DHT22;3293;51.690;5.982;2022-12-15T05:28:17;-7.80;99.90
6520;DHT22;3293;51.690;5.982;2022-12-15T05:33:36;-7.80;99.90
6520;DHT22;3293;51.690;5.982;2022-12-15T05:38:36;-7.80;99.90
6520;DHT22;3293;51.690;5.982;2022-12-15T05:43:36;-7.90;99.90
6520;DHT22;3293;51.690;5.982;2022-12-15T05:48:36;-7.90;99.90
6520;DHT22;3293;51.690;5.982;2022-12-15T05:53:37;-7.90;99.90
6520;DHT22;3293;51.690;5.982;2022-12-15T05:58:38;-7.90;99.90
6520;DHT22;3293;51.690;5.982;2022-12-15T06:03:39;-7.90;99.90
6520;DHT22;3293;51.690;5.982;2022-12-15T06:08:40;-7.90;99.90
6520;DHT22;3293;51.690;5.982;2022-12-15T06:13:41;-7.90;99.90
6520;DHT22;3293;51.690;5.982;2022-12-15T06:18:44;-7.90;99.90
6520;DHT22;3293;51.690;5.982;2022-12-15T06:23:45;-7.90;99.90
6520;DHT22;3293;51.690;5.982;2022-12-15T06:28:45;-7.90;99.90
6520;DHT22;3293;51.690;5.982;2022-12-15T06:33:45;-7.90;99.90
6520;DHT22;3293;51.690;5.982;2022-12-15T06:38:45;-7.90;99.90
6520;DHT22;3293;51.690;5.982;2022-12-15T06:43:50;-7.90;99.90
6520;DHT22;3293;51.690;5.982;2022-12-15T06:48:51;-7.90;99.90
6520;DHT22;3293;51.690;5.982;2022-12-15T06:53:52;-7.90;99.90
6520;DHT22;3293;51.690;5.982;2022-12-15T06:58:55;-7.80;99.90
6520;DHT22;3293;51.690;5.982;2022-12-15T07:03:55;-7.80;99.90
6520;DHT22;3293;51.690;5.982;2022-12-15T07:08:55;-7.70;99.90
6520;DHT22;3293;51.690;5.982;2022-12-15T07:13:55;-7.70;99.90
6520;DHT22;3293;51.690;5.982;2022-12-15T07:18:55;-7.70;99.90
6520;DHT22;3293;51.690;5.982;2022-12-15T07:23:55;-7.60;99.90
6520;DHT22;3293;51.690;5.982;2022-12-15T07:28:56;-7.60;99.90
6520;DHT22;3293;51.690;5.982;2022-12-15T07:33:57;-7.60;99.90
6520;DHT22;3293;51.690;5.982;2022-12-15T07:39:01;-7.70;99.90
6520;DHT22;3293;51.690;5.982;2022-12-15T07:44:04;-7.60;99.90
6520;DHT22;3293;51.690;5.982;2022-12-15T07:49:04;-7.50;99.90
6520;DHT22;3293;51.690;5.982;2022-12-15T07:54:04;-7.50;99.90
6520;DHT22;3293;51.690;5.982;2022-12-15T07:59:06;-7.50;99.90
6520;DHT22;3293;51.690;5.982;2022-12-15T08:04:06;-7.40;99.90
6520;DHT22;3293;51.690;5.982;2022-12-15T08:09:06;-7.40;99.90
6520;DHT22;3293;51.690;5.982;2022-12-15T08:14:06;-7.30;99.90
6520;DHT22;3293;51.690;5.982;2022-12-15T08:19:10;-7.20;99.90
6520;DHT22;3293;51.690;5.982;2022-12-15T08:24:10;-7.10;99.90
6520;DHT22;3293;51.690;5.982;2022-12-15T08:29:12;-7.10;99.90
6520;DHT22;3293;51.690;5.982;2022-12-15T08:34:12;-7.00;99.90
6520;DHT22;3293;51.690;5.982;2022-12-15T08:39:12;-6.80;99.90
6520;DHT22;3293;51.690;5.982;2022-12-15T08:44:12;-6.80;99.90
6520;DHT22;3293;51.690;5.982;2022-12-15T08:49:13;-6.70;99.90
6520;DHT22;3293;51.690;5.982;2022-12-15T08:54:13;-6.50;99.90
6520;DHT22;3293;51.690;5.982;2022-12-15T08:59:12;-6.40;99.90
6520;DHT22;3293;51.690;5.982;2022-12-15T09:04:12;-6.20;99.90
6520;DHT22;3293;51.690;5.982;2022-12-15T09:09:12;-6.00;99.90
6520;DHT22;3293;51.690;5.982;2022-12-15T09:14:12;-5.90;99.90
6520;DHT22;3293;51.690;5.982;2022-12-15T09:19:13;-5.70;99.90
6520;DHT22;3293;51.690;5.982;2022-12-15T09:24:13;-5.50;99.90
6520;DHT22;3293;51.690;5.982;2022-12-15T09:29:13;-5.30;99.90
6520;DHT22;3293;51.690;5.982;2022-12-15T09:34:14;-5.10;99.90
6520;DHT22;3293;51.690;5.982;2022-12-15T09:39:14;-4.90;99.90
6520;DHT22;3293;51.690;5.982;2022-12-15T09:44:17;-4.80;99.90
6520;DHT22;3293;51.690;5.982;2022-12-15T09:54:21;-4.40;99.90
6520;DHT22;3293;51.690;5.982;2022-12-15T10:04:47;-4.10;99.90
6520;DHT22;3293;51.690;5.982;2022-12-15T10:09:50;-4.00;99.90
6520;DHT22;3293;51.690;5.982;2022-12-15T10:15:28;-3.90;99.90
6520;DHT22;3293;51.690;5.982;2022-12-15T10:20:29;-3.80;99.90
6520;DHT22;3293;51.690;5.982;2022-12-15T10:25:30;-3.60;99.90
6520;DHT22;3293;51.690;5.982;2022-12-15T10:30:31;-3.50;99.90
6520;DHT22;3293;51.690;5.982;2022-12-15T10:35:34;-3.40;99.90
6520;DHT22;3293;51.690;5.982;2022-12-15T10:40:47;-3.20;99.90
6520;DHT22;3293;51.690;5.982;2022-12-15T10:45:48;-3.10;99.90
6520;DHT22;3293;51.690;5.982;2022-12-15T10:56:24;-2.90;99.90
6520;DHT22;3293;51.690;5.982;2022-12-15T11:01:27;-2.80;99.90
6520;DHT22;3293;51.690;5.982;2022-12-15T11:06:33;-2.70;99.90
6520;DHT22;3293;51.690;5.982;2022-12-15T11:11:45;-2.60;99.90
6520;DHT22;3293;51.690;5.982;2022-12-15T11:17:19;-2.60;99.90
6520;DHT22;3293;51.690;5.982;2022-12-15T11:22:30;-2.50;99.90
6520;DHT22;3293;51.690;5.982;2022-12-15T11:27:39;-2.40;99.90
6520;DHT22;3293;51.690;5.982;2022-12-15T11:32:53;-2.30;99.90
6520;DHT22;3293;51.690;5.982;2022-12-15T11:38:10;-2.10;99.90
6520;DHT22;3293;51.690;5.982;2022-12-15T11:49:11;-2.00;99.90
6520;DHT22;3293;51.690;5.982;2022-12-15T11:54:52;-1.90;99.90
6520;DHT22;3293;51.690;5.982;2022-12-15T12:10:30;-1.80;99.90
6520;DHT22;3293;51.690;5.982;2022-12-15T12:15:36;-1.80;99.90
6520;DHT22;3293;51.690;5.982;2022-12-15T12:26:04;-1.80;99.90
6520;DHT22;3293;51.690;5.982;2022-12-15T12:32:02;-1.70;99.90
6520;DHT22;3293;51.690;5.982;2022-12-15T12:36:36;-1.60;99.90
6520;DHT22;3293;51.690;5.982;2022-12-15T12:41:47;-1.60;99.90
6520;DHT22;3293;51.690;5.982;2022-12-15T12:46:51;-1.50;99.90
6520;DHT22;3293;51.690;5.982;2022-12-15T12:51:54;-1.50;99.90
6520;DHT22;3293;51.690;5.982;2022-12-15T12:56:55;-1.40;99.90
6520;DHT22;3293;51.690;5.982;2022-12-15T13:01:57;-1.40;99.90
6520;DHT22;3293;51.690;5.982;2022-12-15T13:07:38;-1.30;99.90
6520;DHT22;3293;51.690;5.982;2022-12-15T13:12:52;-1.20;99.90
6520;DHT22;3293;51.690;5.982;2022-12-15T13:17:56;-1.00;99.90
6520;DHT22;3293;51.690;5.982;2022-12-15T13:23:32;-1.00;99.90
6520;DHT22;3293;51.690;5.982;2022-12-15T13:38:53;-1.10;99.90
6520;DHT22;3293;51.690;5.982;2022-12-15T13:43:54;-1.00;99.90
6520;DHT22;3293;51.690;5.982;2022-12-15T13:49:07;-1.00;99.90
6520;DHT22;3293;51.690;5.982;2022-12-15T13:54:21;-0.70;99.90
6520;DHT22;3293;51.690;5.982;2022-12-15T14:04:33;-0.50;99.90
6520;DHT22;3293;51.690;5.982;2022-12-15T14:09:35;-0.30;99.90
6520;DHT22;3293;51.690;5.982;2022-12-15T14:14:43;-0.30;99.90
6520;DHT22;3293;51.690;5.982;2022-12-15T14:19:48;-0.40;99.90
6520;DHT22;3293;51.690;5.982;2022-12-15T14:24:50;-0.50;99.90
6520;DHT22;3293;51.690;5.982;2022-12-15T14:30:08;-0.60;99.90
6520;DHT22;3293;51.690;5.982;2022-12-15T14:35:13;-0.70;99.90
6520;DHT22;3293;51.690;5.982;2022-12-15T14:40:17;-1.00;99.90
6520;DHT22;3293;51.690;5.982;2022-12-15T14:45:20;-1.10;99.90
6520;DHT22;3293;51.690;5.982;2022-12-15T14:50:22;-1.30;99.90
6520;DHT22;3293;51.690;5.982;2022-12-15T14:55:32;-1.40;99.90
6520;DHT22;3293;51.690;5.982;2022-12-15T15:00:36;-1.50;99.90
6520;DHT22;3293;51.690;5.982;2022-12-15T15:11:31;-1.70;99.90
6520;DHT22;3293;51.690;5.982;2022-12-15T15:16:34;-1.80;99.90
6520;DHT22;3293;51.690;5.982;2022-12-15T15:21:35;-2.10;99.90
6520;DHT22;3293;51.690;5.982;2022-12-15T15:26:36;-2.20;99.90
6520;DHT22;3293;51.690;5.982;2022-12-15T15:31:37;-2.30;99.90
6520;DHT22;3293;51.690;5.982;2022-12-15T15:36:38;-2.40;99.90
6520;DHT22;3293;51.690;5.982;2022-12-15T15:41:38;-2.60;99.90
6520;DHT22;3293;51.690;5.982;2022-12-15T15:46:48;-2.70;99.90
6520;DHT22;3293;51.690;5.982;2022-12-15T15:51:49;-2.80;99.90
6520;DHT22;3293;51.690;5.982;2022-12-15T15:56:49;-2.90;99.90
6520;DHT22;3293;51.690;5.982;2022-12-15T16:01:52;-2.90;99.90
6520;DHT22;3293;51.690;5.982;2022-12-15T16:06:56;-3.00;99.90
6520;DHT22;3293;51.690;5.982;2022-12-15T16:11:57;-3.10;99.90
6520;DHT22;3293;51.690;5.982;2022-12-15T16:16:57;-3.10;99.90
6520;DHT22;3293;51.690;5.982;2022-12-15T16:21:58;-3.00;99.90
6520;DHT22;3293;51.690;5.982;2022-12-15T16:26:58;-3.10;99.90
6520;DHT22;3293;51.690;5.982;2022-12-15T16:31:58;-3.20;99.90
6520;DHT22;3293;51.690;5.982;2022-12-15T16:36:58;-3.30;99.90
6520;DHT22;3293;51.690;5.982;2022-12-15T16:41:58;-3.30;99.90
6520;DHT22;3293;51.690;5.982;2022-12-15T16:46:58;-3.40;99.90
6520;DHT22;3293;51.690;5.982;2022-12-15T16:51:58;-3.40;99.90
6520;DHT22;3293;51.690;5.982;2022-12-15T16:56:58;-3.50;99.90
6520;DHT22;3293;51.690;5.982;2022-12-15T17:01:59;-3.50;99.90
6520;DHT22;3293;51.690;5.982;2022-12-15T17:06:59;-3.60;99.90
6520;DHT22;3293;51.690;5.982;2022-12-15T17:11:59;-3.60;99.90
6520;DHT22;3293;51.690;5.982;2022-12-15T17:17:01;-3.60;99.90
6520;DHT22;3293;51.690;5.982;2022-12-15T17:22:00;-3.70;99.90
6520;DHT22;3293;51.690;5.982;2022-12-15T17:27:00;-3.80;99.90
6520;DHT22;3293;51.690;5.982;2022-12-15T17:32:01;-3.90;99.90
6520;DHT22;3293;51.690;5.982;2022-12-15T17:37:03;-4.00;99.90
6520;DHT22;3293;51.690;5.982;2022-12-15T17:42:14;-4.00;99.90
6520;DHT22;3293;51.690;5.982;2022-12-15T17:47:15;-4.00;99.90
6520;DHT22;3293;51.690;5.982;2022-12-15T17:52:21;-4.00;99.90
6520;DHT22;3293;51.690;5.982;2022-12-15T17:57:23;-3.90;99.90
6520;DHT22;3293;51.690;5.982;2022-12-15T18:02:23;-3.90;99.90
6520;DHT22;3293;51.690;5.982;2022-12-15T18:07:23;-3.90;99.90
6520;DHT22;3293;51.690;5.982;2022-12-15T18:12:25;-3.90;99.90
6520;DHT22;3293;51.690;5.982;2022-12-15T18:17:26;-3.80;99.90
6520;DHT22;3293;51.690;5.982;2022-12-15T18:22:27;-3.80;99.90
6520;DHT22;3293;51.690;5.982;2022-12-15T18:27:28;-3.80;99.90
6520;DHT22;3293;51.690;5.982;2022-12-15T18:32:28;-3.70;99.90
6520;DHT22;3293;51.690;5.982;2022-12-15T18:37:28;-3.60;99.90
6520;DHT22;3293;51.690;5.982;2022-12-15T18:42:28;-3.60;99.90
6520;DHT22;3293;51.690;5.982;2022-12-15T18:47:28;-3.50;99.90
6520;DHT22;3293;51.690;5.982;2022-12-15T18:52:28;-3.60;99.90
6520;DHT22;3293;51.690;5.982;2022-12-15T18:57:31;-3.50;99.90
6520;DHT22;3293;51.690;5.982;2022-12-15T19:02:31;-3.50;99.90
6520;DHT22;3293;51.690;5.982;2022-12-15T19:07:32;-3.40;99.90
6520;DHT22;3293;51.690;5.982;2022-12-15T19:12:33;-3.40;99.90
6520;DHT22;3293;51.690;5.982;2022-12-15T19:17:33;-3.40;99.90
6520;DHT22;3293;51.690;5.982;2022-12-15T19:22:52;-3.40;99.90
6520;DHT22;3293;51.690;5.982;2022-12-15T19:27:54;-3.50;99.90
6520;DHT22;3293;51.690;5.982;2022-12-15T19:32:58;-3.60;99.90
6520;DHT22;3293;51.690;5.982;2022-12-15T19:38:00;-3.70;99.90
6520;DHT22;3293;51.690;5.982;2022-12-15T19:43:02;-3.80;99.90
6520;DHT22;3293;51.690;5.982;2022-12-15T19:48:03;-3.80;99.90
6520;DHT22;3293;51.690;5.982;2022-12-15T19:53:22;-4.00;99.90
6520;DHT22;3293;51.690;5.982;2022-12-15T19:58:34;-4.10;99.90
6520;DHT22;3293;51.690;5.982;2022-12-15T20:03:35;-4.30;99.90
6520;DHT22;3293;51.690;5.982;2022-12-15T20:08:37;-4.30;99.90
6520;DHT22;3293;51.690;5.982;2022-12-15T20:13:39;-4.40;99.90
6520;DHT22;3293;51.690;5.982;2022-12-15T20:18:39;-4.50;99.90
6520;DHT22;3293;51.690;5.982;2022-12-15T20:23:53;-4.60;99.90
6520;DHT22;3293;51.690;5.982;2022-12-15T20:28:55;-4.70;99.90
6520;DHT22;3293;51.690;5.982;2022-12-15T20:33:55;-4.70;99.90
6520;DHT22;3293;51.690;5.982;2022-12-15T20:38:56;-4.80;99.90
6520;DHT22;3293;51.690;5.982;2022-12-15T20:43:56;-4.80;99.90
6520;DHT22;3293;51.690;5.982;2022-12-15T20:48:57;-4.90;99.90
6520;DHT22;3293;51.690;5.982;2022-12-15T20:54:01;-5.00;99.90
6520;DHT22;3293;51.690;5.982;2022-12-15T20:59:01;-5.00;99.90
6520;DHT22;3293;51.690;5.982;2022-12-15T21:04:16;-5.10;99.90
6520;DHT22;3293;51.690;5.982;2022-12-15T21:09:16;-5.10;99.90
6520;DHT22;3293;51.690;5.982;2022-12-15T21:14:21;-5.20;99.90
6520;DHT22;3293;51.690;5.982;2022-12-15T21:19:21;-5.20;99.90
6520;DHT22;3293;51.690;5.982;2022-12-15T21:24:23;-5.30;99.90
6520;DHT22;3293;51.690;5.982;2022-12-15T21:29:26;-5.30;99.90
6520;DHT22;3293;51.690;5.982;2022-12-15T21:34:26;-5.40;99.90
6520;DHT22;3293;51.690;5.982;2022-12-15T21:39:33;-5.40;99.90
6520;DHT22;3293;51.690;5.982;2022-12-15T21:44:33;-5.50;99.90
6520;DHT22;3293;51.690;5.982;2022-12-15T21:49:33;-5.50;99.90
6520;DHT22;3293;51.690;5.982;2022-12-15T21:54:34;-5.60;99.90
6520;DHT22;3293;51.690;5.982;2022-12-15T21:59:34;-5.70;99.90
6520;DHT22;3293;51.690;5.982;2022-12-15T22:04:34;-5.70;99.90
6520;DHT22;3293;51.690;5.982;2022-12-15T22:09:34;-5.60;99.90
6520;DHT22;3293;51.690;5.982;2022-12-15T22:14:35;-5.70;99.90
6520;DHT22;3293;51.690;5.982;2022-12-15T22:19:35;-5.70;99.90
6520;DHT22;3293;51.690;5.982;2022-12-15T22:24:35;-5.80;99.90
6520;DHT22;3293;51.690;5.982;2022-12-15T22:29:36;-5.80;99.90
6520;DHT22;3293;51.690;5.982;2022-12-15T22:34:36;-5.80;99.90
6520;DHT22;3293;51.690;5.982;2022-12-15T22:39:36;-5.90;99.90
6520;DHT22;3293;51.690;5.982;2022-12-15T22:44:36;-5.80;99.90
6520;DHT22;3293;51.690;5.982;2022-12-15T22:49:37;-5.80;99.90
6520;DHT22;3293;51.690;5.982;2022-12-15T22:54:38;-5.80;99.90
6520;DHT22;3293;51.690;5.982;2022-12-15T22:59:42;-5.80;99.90
6520;DHT22;3293;51.690;5.982;2022-12-15T23:04:45;-5.90;99.90
6520;DHT22;3293;51.690;5.982;2022-12-15T23:09:44;-5.80;99.90
6520;DHT22;3293;51.690;5.982;2022-12-15T23:14:44;-5.60;99.90
6520;DHT22;3293;51.690;5.982;2022-12-15T23:20:04;-5.30;99.90
6520;DHT22;3293;51.690;5.982;2022-12-15T23:25:04;-5.10;99.90
6520;DHT22;3293;51.690;5.982;2022-12-15T23:30:04;-4.80;99.90
6520;DHT22;3293;51.690;5.982;2022-12-15T23:35:05;-4.60;99.90
6520;DHT22;3293;51.690;5.982;2022-12-15T23:40:05;-4.50;99.90
6520;DHT22;3293;51.690;5.982;2022-12-15T23:45:06;-4.30;99.90
6520;DHT22;3293;51.690;5.982;2022-12-15T23:50:06;-4.10;99.90
6520;DHT22;3293;51.690;5.982;2022-12-15T23:55:07;-3.90;99.90
